CSAPA KISM-KISM
Flight info
| Callsign | CSAPA |
|---|---|
| Flight time | 0h 25m |
| Altitude | VFR |
| Route | |
| Aircraft | C152/L-VGD/C |
Departure
| Time | 2026-05-05 01:26 |
|---|---|
| Airport | Kissimmee Gateway Airport (KISM) |
Arrival
| Time | 2026-05-05 01:51 |
|---|---|
| Airport | Kissimmee Gateway Airport (KISM) |
| Time | Latitude | Longitude | Altitude | Speed | Heading |
|---|---|---|---|---|---|
| 2026-05-05 01:19 | 28.29463 | -81.43739 | 85 ft | 0 kts | 180° |
| 2026-05-05 01:20 | 28.29462 | -81.43739 | 85 ft | 2 kts | 180° |
| 2026-05-05 01:20 | 28.29406 | -81.43749 | 85 ft | 8 kts | 233° |
| 2026-05-05 01:20 | 28.29419 | -81.43813 | 85 ft | 10 kts | 283° |
| 2026-05-05 01:21 | 28.29425 | -81.43906 | 85 ft | 11 kts | 278° |
| 2026-05-05 01:21 | 28.29474 | -81.43947 | 85 ft | 12 kts | 329° |
| 2026-05-05 01:21 | 28.29549 | -81.43998 | 85 ft | 12 kts | 328° |
| 2026-05-05 01:21 | 28.29611 | -81.44040 | 85 ft | 10 kts | 328° |
| 2026-05-05 01:22 | 28.29650 | -81.44075 | 85 ft | 6 kts | 285° |
| 2026-05-05 01:22 | 28.29649 | -81.44087 | 85 ft | 0 kts | 241° |
| 2026-05-05 01:24 | 28.29645 | -81.44094 | 85 ft | 6 kts | 237° |
| 2026-05-05 01:24 | 28.29595 | -81.44146 | 85 ft | 8 kts | 164° |
| 2026-05-05 01:24 | 28.29498 | -81.44081 | 85 ft | 40 kts | 146° |
| 2026-05-05 01:25 | 28.29130 | -81.43823 | 159 ft | 71 kts | 149° |
| 2026-05-05 01:25 | 28.28857 | -81.43651 | 367 ft | 64 kts | 151° |
| 2026-05-05 01:25 | 28.28271 | -81.43247 | 553 ft | 83 kts | 143° |
| 2026-05-05 01:25 | 28.27742 | -81.43035 | 682 ft | 86 kts | 194° |
| 2026-05-05 01:26 | 28.27324 | -81.43487 | 773 ft | 83 kts | 233° |
| 2026-05-05 01:26 | 28.27199 | -81.44117 | 803 ft | 88 kts | 283° |
| 2026-05-05 01:26 | 28.27591 | -81.44601 | 863 ft | 82 kts | 327° |
| 2026-05-05 01:26 | 28.27912 | -81.44842 | 866 ft | 82 kts | 326° |
| 2026-05-05 01:27 | 28.28389 | -81.45221 | 858 ft | 83 kts | 324° |
| 2026-05-05 01:27 | 28.28846 | -81.45604 | 869 ft | 83 kts | 323° |
| 2026-05-05 01:27 | 28.29329 | -81.45979 | 834 ft | 84 kts | 339° |
| 2026-05-05 01:27 | 28.29856 | -81.45824 | 802 ft | 89 kts | 48° |
| 2026-05-05 01:28 | 28.30148 | -81.45244 | 777 ft | 74 kts | 60° |
| 2026-05-05 01:28 | 28.30217 | -81.44709 | 565 ft | 72 kts | 112° |
| 2026-05-05 01:28 | 28.29875 | -81.44335 | 302 ft | 67 kts | 141° |
| 2026-05-05 01:28 | 28.29486 | -81.44066 | 92 ft | 60 kts | 149° |
| 2026-05-05 01:29 | 28.29148 | -81.43829 | 91 ft | 69 kts | 148° |
| 2026-05-05 01:29 | 28.28711 | -81.43555 | 323 ft | 67 kts | 153° |
| 2026-05-05 01:29 | 28.28232 | -81.43222 | 403 ft | 90 kts | 144° |
| 2026-05-05 01:29 | 28.27647 | -81.43139 | 586 ft | 94 kts | 206° |
| 2026-05-05 01:30 | 28.27249 | -81.43685 | 880 ft | 80 kts | 239° |
| 2026-05-05 01:30 | 28.27226 | -81.44289 | 981 ft | 84 kts | 295° |
| 2026-05-05 01:30 | 28.27683 | -81.44733 | 987 ft | 89 kts | 332° |
| 2026-05-05 01:30 | 28.28256 | -81.45094 | 931 ft | 97 kts | 329° |
| 2026-05-05 01:31 | 28.28821 | -81.45490 | 920 ft | 91 kts | 327° |
| 2026-05-05 01:31 | 28.29328 | -81.45857 | 713 ft | 83 kts | 333° |
| 2026-05-05 01:31 | 28.29797 | -81.45673 | 636 ft | 87 kts | 54° |
| 2026-05-05 01:31 | 28.30092 | -81.45059 | 488 ft | 87 kts | 70° |
| 2026-05-05 01:32 | 28.29977 | -81.44459 | 341 ft | 79 kts | 129° |
| 2026-05-05 01:32 | 28.29536 | -81.44103 | 116 ft | 73 kts | 149° |
| 2026-05-05 01:32 | 28.29150 | -81.43829 | 89 ft | 70 kts | 148° |
| 2026-05-05 01:32 | 28.28676 | -81.43515 | 257 ft | 82 kts | 150° |
| 2026-05-05 01:33 | 28.28157 | -81.43148 | 401 ft | 94 kts | 149° |
| 2026-05-05 01:33 | 28.27604 | -81.43284 | 616 ft | 91 kts | 238° |
| 2026-05-05 01:33 | 28.27343 | -81.43973 | 746 ft | 98 kts | 265° |
| 2026-05-05 01:33 | 28.27663 | -81.44630 | 807 ft | 102 kts | 324° |
| 2026-05-05 01:34 | 28.28209 | -81.45044 | 890 ft | 93 kts | 329° |
| 2026-05-05 01:34 | 28.28799 | -81.45415 | 845 ft | 99 kts | 332° |
| 2026-05-05 01:34 | 28.29367 | -81.45737 | 824 ft | 83 kts | 339° |
| 2026-05-05 01:34 | 28.29888 | -81.45628 | 746 ft | 79 kts | 45° |
| 2026-05-05 01:35 | 28.30174 | -81.45105 | 615 ft | 74 kts | 72° |
| 2026-05-05 01:35 | 28.30063 | -81.44574 | 389 ft | 74 kts | 120° |
| 2026-05-05 01:35 | 28.29677 | -81.44199 | 169 ft | 71 kts | 149° |
| 2026-05-05 01:35 | 28.29296 | -81.43932 | 85 ft | 54 kts | 148° |
| 2026-05-05 01:36 | 28.28940 | -81.43685 | 104 ft | 75 kts | 148° |
| 2026-05-05 01:36 | 28.28481 | -81.43365 | 292 ft | 79 kts | 148° |
| 2026-05-05 01:36 | 28.27936 | -81.43072 | 443 ft | 88 kts | 178° |
| 2026-05-05 01:36 | 28.27441 | -81.43463 | 612 ft | 93 kts | 236° |
| 2026-05-05 01:37 | 28.27209 | -81.44139 | 784 ft | 96 kts | 274° |
| 2026-05-05 01:37 | 28.27586 | -81.44769 | 844 ft | 99 kts | 327° |
| 2026-05-05 01:37 | 28.28150 | -81.45141 | 893 ft | 93 kts | 330° |
| 2026-05-05 01:37 | 28.28744 | -81.45489 | 862 ft | 98 kts | 334° |
| 2026-05-05 01:38 | 28.29337 | -81.45788 | 879 ft | 85 kts | 337° |
| 2026-05-05 01:38 | 28.29839 | -81.45716 | 752 ft | 78 kts | 54° |
| 2026-05-05 01:38 | 28.30074 | -81.45165 | 587 ft | 72 kts | 68° |
| 2026-05-05 01:38 | 28.30120 | -81.44620 | 390 ft | 70 kts | 107° |
| 2026-05-05 01:39 | 28.29773 | -81.44260 | 211 ft | 70 kts | 151° |
| 2026-05-05 01:39 | 28.29364 | -81.43983 | 91 ft | 62 kts | 148° |
| 2026-05-05 01:39 | 28.28992 | -81.43722 | 95 ft | 76 kts | 148° |
| 2026-05-05 01:39 | 28.28525 | -81.43397 | 296 ft | 77 kts | 148° |
| 2026-05-05 01:40 | 28.27994 | -81.43082 | 418 ft | 91 kts | 171° |
| 2026-05-05 01:40 | 28.27449 | -81.43435 | 520 ft | 100 kts | 236° |
| 2026-05-05 01:40 | 28.27330 | -81.44125 | 764 ft | 93 kts | 298° |
| 2026-05-05 01:40 | 28.27829 | -81.44620 | 856 ft | 94 kts | 323° |
| 2026-05-05 01:41 | 28.28336 | -81.45065 | 855 ft | 93 kts | 321° |
| 2026-05-05 01:41 | 28.28866 | -81.45480 | 850 ft | 92 kts | 328° |
| 2026-05-05 01:41 | 28.29411 | -81.45892 | 823 ft | 93 kts | 326° |
| 2026-05-05 01:41 | 28.29950 | -81.46258 | 900 ft | 91 kts | 331° |
| 2026-05-05 01:42 | 28.30529 | -81.46554 | 998 ft | 88 kts | 355° |
| 2026-05-05 01:42 | 28.31012 | -81.46229 | 992 ft | 90 kts | 58° |
| 2026-05-05 01:42 | 28.31217 | -81.45590 | 875 ft | 80 kts | 102° |
| 2026-05-05 01:42 | 28.30855 | -81.45041 | 595 ft | 96 kts | 139° |
| 2026-05-05 01:43 | 28.30313 | -81.44651 | 390 ft | 93 kts | 149° |
| 2026-05-05 01:43 | 28.29806 | -81.44291 | 230 ft | 79 kts | 149° |
| 2026-05-05 01:43 | 28.29374 | -81.43990 | 93 ft | 64 kts | 148° |
| 2026-05-05 01:43 | 28.29013 | -81.43736 | 115 ft | 69 kts | 147° |
| 2026-05-05 01:44 | 28.28570 | -81.43414 | 260 ft | 80 kts | 147° |
| 2026-05-05 01:44 | 28.28051 | -81.43082 | 399 ft | 91 kts | 167° |
| 2026-05-05 01:44 | 28.27514 | -81.43413 | 505 ft | 101 kts | 237° |
| 2026-05-05 01:44 | 28.27230 | -81.44119 | 688 ft | 97 kts | 269° |
| 2026-05-05 01:45 | 28.27587 | -81.44753 | 779 ft | 103 kts | 329° |
| 2026-05-05 01:45 | 28.28146 | -81.45134 | 881 ft | 90 kts | 328° |
| 2026-05-05 01:45 | 28.28714 | -81.45497 | 833 ft | 97 kts | 332° |
| 2026-05-05 01:45 | 28.29303 | -81.45822 | 780 ft | 85 kts | 334° |
| 2026-05-05 01:46 | 28.29829 | -81.45892 | 669 ft | 77 kts | 26° |
| 2026-05-05 01:46 | 28.30131 | -81.45387 | 566 ft | 81 kts | 69° |
| 2026-05-05 01:46 | 28.30169 | -81.44814 | 399 ft | 71 kts | 111° |
| 2026-05-05 01:46 | 28.29876 | -81.44362 | 216 ft | 72 kts | 139° |
| 2026-05-05 01:47 | 28.29471 | -81.44058 | 106 ft | 68 kts | 148° |
| 2026-05-05 01:47 | 28.29109 | -81.43807 | 86 ft | 64 kts | 148° |
| 2026-05-05 01:47 | 28.28663 | -81.43500 | 210 ft | 79 kts | 149° |
| 2026-05-05 01:47 | 28.28133 | -81.43173 | 307 ft | 95 kts | 161° |
| 2026-05-05 01:48 | 28.27560 | -81.43431 | 465 ft | 97 kts | 240° |
| 2026-05-05 01:48 | 28.27292 | -81.44119 | 665 ft | 96 kts | 266° |
| 2026-05-05 01:48 | 28.27606 | -81.44757 | 793 ft | 100 kts | 326° |
| 2026-05-05 01:48 | 28.28188 | -81.45177 | 933 ft | 99 kts | 328° |
| 2026-05-05 01:49 | 28.28781 | -81.45570 | 1016 ft | 98 kts | 331° |
| 2026-05-05 01:49 | 28.29388 | -81.45941 | 1040 ft | 99 kts | 331° |
| 2026-05-05 01:49 | 28.29965 | -81.46052 | 956 ft | 82 kts | 18° |
| 2026-05-05 01:49 | 28.30317 | -81.45639 | 836 ft | 71 kts | 60° |
| 2026-05-05 01:50 | 28.30438 | -81.45109 | 615 ft | 72 kts | 98° |
| 2026-05-05 01:50 | 28.30183 | -81.44602 | 353 ft | 76 kts | 134° |
| 2026-05-05 01:50 | 28.29768 | -81.44266 | 171 ft | 69 kts | 150° |
| 2026-05-05 01:50 | 28.29374 | -81.43994 | 86 ft | 60 kts | 148° |
| 2026-05-05 01:51 | 28.29083 | -81.43791 | 86 ft | 38 kts | 148° |
| 2026-05-05 01:51 | 28.28957 | -81.43685 | 85 ft | 10 kts | 86° |
| 2026-05-05 01:51 | 28.28976 | -81.43641 | 85 ft | 0 kts | 59° |
| 2026-05-05 01:51 | 28.28987 | -81.43627 | 85 ft | 7 kts | 28° |
| 2026-05-05 01:52 | 28.29057 | -81.43644 | 85 ft | 13 kts | 329° |
| 2026-05-05 01:52 | 28.29145 | -81.43703 | 85 ft | 16 kts | 329° |
| 2026-05-05 01:52 | 28.29229 | -81.43761 | 85 ft | 11 kts | 328° |
| 2026-05-05 01:52 | 28.29318 | -81.43824 | 85 ft | 17 kts | 328° |
| 2026-05-05 01:53 | 28.29419 | -81.43892 | 85 ft | 13 kts | 351° |
| 2026-05-05 01:53 | 28.29437 | -81.43842 | 85 ft | 10 kts | 92° |
| 2026-05-05 01:53 | 28.29435 | -81.43750 | 85 ft | 11 kts | 90° |
| 2026-05-05 01:53 | 28.29459 | -81.43734 | 85 ft | 2 kts | 359° |
| 2026-05-05 01:54 | 28.29460 | -81.43734 | 85 ft | 0 kts | 359° |